Villa Auxerre, Puerto Rico
Current Conditions -  °F | °C
As of 9:50 AM on Friday 28 Nov 2014 (Local Time) from TJBQ Reporting Station
Clear Clear  
Wind Chill: 82°   Ceiling: Unl
Heat Index: 86°   Visibility: 10mi
Dew Point: 70°   Wind: 6mph
Humidity: 66%   Direction: 130°SE
Pressure: 30.01"   Gusts: NA
Location:  18.0846°N, 67.0463°W
Report Text: TJBQ 281350Z 13005KT 10SM SKC 28/21 A3001 RMK RWY 08- ATIS S
Loading
Personal Weather Stations






























Interactive Weather Map New forecast layout! Learn more

10-Day Weather Forecast

Advertisements
Track Severe Weather on mobile